Flight Track Log - Related Links

Times and Time Zones

All times are in EDT time to prevent confusion due to time zone crossing. See the ASA250 flight status page for this flight to view local times or setup timezone preferences in your user account.

Time Position Orientation Groundspeed Altitude Reporting Facility
EDT Latitude Longitude Course Direction KTS MPH feet Rate Location/Type
Sun 11:24:59 AM 33.9333 -118.4600 125° Southeast 195 224 2,000  Level Los Angeles Center
Sun 11:26:00 AM 33.8958 -118.5325 238° Southwest 240 276 4,300 2,585 Climbing Los Angeles Center
Sun 11:27:02 AM 33.8486 -118.6019 231° Southwest 265 305 7,300 2,382 Climbing Los Angeles Center
Sun 11:28:16 AM 33.7886 -118.6458 211° Southwest 287 330 9,700 2,029 Climbing Los Angeles Center
Sun 11:29:18 AM 33.7019 -118.5944 154° Southeast 324 373 11,900 2,323 Climbing Los Angeles Center
Sun 11:30:00 AM 33.5845 -117.8029 125° Southeast  Level Estimated
Sun 11:30:20 AM 33.6750 -118.4583 103° East 355 409 14,500  Level Los Angeles Center
Sun 11:31:22 AM 33.6592 -118.3414 99° East 371 427 16,500 1,220 Climbing Los Angeles Center
Sun 11:32:23 AM 33.6717 -118.2172 83° East 387 445 17,000 439 Climbing Los Angeles Center
Sun 11:33:25 AM 33.6397 -118.0869 106° East 425 489 17,400 1,161 Climbing Los Angeles Center
Sun 11:34:27 AM 33.5836 -117.9228 112° Southeast 444 511 19,400 1,645 Climbing Los Angeles Center
Sun 11:35:29 AM 33.5350 -117.7811 112° Southeast 460 529 20,800 1,366 Climbing Los Angeles Center
Sun 11:36:30 AM 33.4850 -117.6358 112° Southeast 472 543 22,200 1,366 Climbing Los Angeles Center
Sun 11:37:32 AM 33.4331 -117.4861 113° Southeast 485 558 23,600 1,306 Climbing Los Angeles Center
Sun 11:38:34 AM 33.3706 -117.3392 117° Southeast 500 575 24,900 1,103 Climbing Los Angeles Center
Sun 11:39:48 AM 33.2817 -117.1547 120° Southeast 512 589 26,100 1,015 Climbing Los Angeles Center
Sun 11:40:50 AM 33.2119 -117.0017 119° Southeast 522 601 27,200 1,258 Climbing Los Angeles Center
Sun 11:41:52 AM 33.1406 -116.8481 119° Southeast 529 609 28,700 871 Climbing Los Angeles Center
Sun 11:42:54 AM 33.0689 -116.6992 120° Southeast 522 601 29,000 537 Climbing Los Angeles Center
Sun 11:43:55 AM 32.9856 -116.5275 120° Southeast 525 604 29,800 829 Climbing Los Angeles Center
Sun 11:44:57 AM 32.9181 -116.3744 118° Southeast 526 605 30,700 585 Climbing Los Angeles Center
Sun 11:45:58 AM 32.8550 -116.2544 122° Southeast 533 613 31,000 823 Climbing Los Angeles Center
Sun 11:47:01 AM 32.7561 -116.0533 120° Southeast 522 601 32,400 1,210 Climbing Los Angeles Center
Sun 11:48:02 AM 32.6828 -115.9036 120° Southeast 525 604 33,500 976 Climbing Los Angeles Center
Sun 11:49:04 AM 32.5967 -115.7675 127° Southeast 516 594 34,400 871 Climbing Los Angeles Center
Sun 11:51:00 AM 32.4566 -115.5383 122° Southeast  Level FlightAware Approximate
Sun 11:58:00 AM 32.0036 -114.6705 121° Southeast  Level FlightAware Approximate
Sun 11:59:00 AM 31.9392 -114.5467 122° Southeast  Level FlightAware Approximate
Sun 12:00:00 PM 31.8730 -114.4242 122° Southeast  Level FlightAware Approximate
Sun 12:01:00 PM 31.8067 -114.3019 123° Southeast  Level FlightAware Approximate
Sun 12:02:00 PM 31.7403 -114.1798 123° Southeast  Level FlightAware Approximate
Sun 12:03:00 PM 31.6738 -114.0579 123° Southeast  Level FlightAware Approximate
Sun 12:04:00 PM 31.6071 -113.9361 123° Southeast  Level FlightAware Approximate
Sun 12:05:00 PM 31.5403 -113.8145 123° Southeast  Level FlightAware Approximate
Sun 12:06:00 PM 31.4735 -113.6931 123° Southeast  Level FlightAware Approximate
Sun 12:07:00 PM 31.4065 -113.5719 123° Southeast  Level FlightAware Approximate
Sun 12:08:00 PM 31.3305 -113.4594 136° Southeast  Level FlightAware Approximate
Sun 12:09:00 PM 31.2414 -113.3597 136° Southeast  Level FlightAware Approximate
Sun 12:10:00 PM 31.1523 -113.2603 136° Southeast  Level FlightAware Approximate
Sun 12:11:00 PM 31.0630 -113.1610 136° Southeast  Level FlightAware Approximate
Sun 12:12:00 PM 30.9737 -113.0619 136° Southeast  Level FlightAware Approximate
Sun 12:13:00 PM 30.8843 -112.9630 136° Southeast  Level FlightAware Approximate
Sun 12:14:00 PM 30.7949 -112.8642 137° Southeast  Level FlightAware Approximate
Sun 12:15:00 PM 30.7054 -112.7657 137° Southeast  Level FlightAware Approximate
Sun 12:16:00 PM 30.6158 -112.6673 137° Southeast  Level FlightAware Approximate
Sun 12:17:00 PM 30.5259 -112.5694 137° Southeast  Level FlightAware Approximate
Sun 12:18:00 PM 30.4359 -112.4716 137° Southeast  Level FlightAware Approximate
Sun 12:19:00 PM 30.3458 -112.3741 137° Southeast  Level FlightAware Approximate
Sun 12:20:00 PM 30.2557 -112.2768 137° Southeast  Level FlightAware Approximate
Sun 12:21:00 PM 30.1655 -112.1796 137° Southeast  Level FlightAware Approximate
Sun 12:22:00 PM 30.0752 -112.0826 137° Southeast  Level FlightAware Approximate
Sun 12:23:00 PM 29.9848 -111.9858 137° Southeast  Level FlightAware Approximate
Sun 12:24:00 PM 29.8944 -111.8892 137° Southeast  Level FlightAware Approximate
Sun 12:25:00 PM 29.8039 -111.7927 137° Southeast  Level FlightAware Approximate
Sun 12:26:00 PM 29.7134 -111.6964 137° Southeast  Level FlightAware Approximate
Sun 12:27:00 PM 29.6227 -111.6003 137° Southeast  Level FlightAware Approximate
Sun 12:28:00 PM 29.5320 -111.5044 137° Southeast  Level FlightAware Approximate
Sun 12:29:00 PM 29.4413 -111.4086 137° Southeast  Level FlightAware Approximate
Sun 12:30:00 PM 29.3504 -111.3130 137° Southeast  Level FlightAware Approximate
Sun 12:31:00 PM 29.2595 -111.2176 138° Southeast  Level FlightAware Approximate
Sun 12:32:00 PM 29.1686 -111.1224 138° Southeast  Level FlightAware Approximate
Sun 12:33:00 PM 29.0778 -111.0269 134° Southeast  Level FlightAware Approximate
Sun 12:34:00 PM 28.9918 -110.9260 134° Southeast  Level FlightAware Approximate
Sun 12:35:00 PM 28.9056 -110.8253 134° Southeast  Level FlightAware Approximate
Sun 12:36:00 PM 28.8194 -110.7247 134° Southeast  Level FlightAware Approximate
Sun 12:37:00 PM 28.7331 -110.6243 134° Southeast  Level FlightAware Approximate
Sun 12:38:00 PM 28.6468 -110.5241 134° Southeast  Level FlightAware Approximate
Sun 12:39:00 PM 28.5603 -110.4240 135° Southeast  Level FlightAware Approximate
Sun 12:40:00 PM 28.4738 -110.3241 135° Southeast  Level FlightAware Approximate
Sun 12:41:00 PM 28.3872 -110.2244 135° Southeast  Level FlightAware Approximate
Sun 12:42:00 PM 28.3006 -110.1248 135° Southeast  Level FlightAware Approximate
Sun 12:43:00 PM 28.2139 -110.0254 135° Southeast  Level FlightAware Approximate
Sun 12:44:00 PM 28.1271 -109.9262 135° Southeast  Level FlightAware Approximate
Sun 12:45:00 PM 28.0402 -109.8271 135° Southeast  Level FlightAware Approximate
Sun 12:46:00 PM 27.9532 -109.7281 135° Southeast  Level FlightAware Approximate
Sun 12:47:00 PM 27.8662 -109.6294 135° Southeast  Level FlightAware Approximate
Sun 12:48:00 PM 27.7791 -109.5308 135° Southeast  Level FlightAware Approximate
Sun 12:49:00 PM 27.6944 -109.4297 133° Southeast  Level FlightAware Approximate
Sun 12:50:00 PM 27.6099 -109.3284 133° Southeast  Level FlightAware Approximate
Sun 12:51:00 PM 27.5254 -109.2272 133° Southeast  Level FlightAware Approximate
Sun 12:52:00 PM 27.4381 -109.1292 135° Southeast  Level FlightAware Approximate
Sun 12:53:00 PM 27.3503 -109.0318 135° Southeast  Level FlightAware Approximate
Sun 12:54:00 PM 27.2625 -108.9344 135° Southeast  Level FlightAware Approximate
Sun 12:55:00 PM 27.1746 -108.8373 135° Southeast  Level FlightAware Approximate
Sun 12:56:00 PM 27.0866 -108.7403 136° Southeast  Level FlightAware Approximate
Sun 12:57:00 PM 26.9986 -108.6435 136° Southeast  Level FlightAware Approximate
Sun 12:58:00 PM 26.9105 -108.5468 136° Southeast  Level FlightAware Approximate
Sun 12:59:00 PM 26.8223 -108.4502 136° Southeast  Level FlightAware Approximate
Sun 01:00:00 PM 26.7341 -108.3539 136° Southeast  Level FlightAware Approximate
Sun 01:01:00 PM 26.6562 -108.2477 125° Southeast  Level FlightAware Approximate
Sun 01:02:00 PM 26.5848 -108.1353 125° Southeast  Level FlightAware Approximate
Sun 01:03:00 PM 26.5133 -108.0231 125° Southeast  Level FlightAware Approximate
Sun 01:04:00 PM 26.4412 -107.9114 126° Southeast  Level FlightAware Approximate
Sun 01:05:00 PM 26.3680 -107.8008 126° Southeast  Level FlightAware Approximate
Sun 01:06:00 PM 26.2947 -107.6902 126° Southeast  Level FlightAware Approximate
Sun 01:07:00 PM 26.2213 -107.5798 127° Southeast  Level FlightAware Approximate
Sun 01:08:00 PM 26.1478 -107.4696 127° Southeast  Level FlightAware Approximate
Sun 01:09:00 PM 26.0743 -107.3594 127° Southeast  Level FlightAware Approximate
Sun 01:10:00 PM 26.0006 -107.2494 127° Southeast  Level FlightAware Approximate
Sun 01:11:00 PM 25.9269 -107.1396 127° Southeast  Level FlightAware Approximate
Sun 01:12:00 PM 25.8534 -107.0297 126° Southeast  Level FlightAware Approximate
Sun 01:13:00 PM 25.7809 -106.9190 126° Southeast  Level FlightAware Approximate
Sun 01:14:00 PM 25.7083 -106.8084 126° Southeast  Level FlightAware Approximate
Sun 01:15:00 PM 25.6356 -106.6979 126° Southeast  Level FlightAware Approximate
Sun 01:16:00 PM 25.5629 -106.5876 126° Southeast  Level FlightAware Approximate
Sun 01:17:00 PM 25.4900 -106.4774 126° Southeast  Level FlightAware Approximate
Sun 01:18:00 PM 25.4171 -106.3674 126° Southeast  Level FlightAware Approximate
Sun 01:19:00 PM 25.3432 -106.2583 127° Southeast  Level FlightAware Approximate
Sun 01:20:00 PM 25.2692 -106.1493 127° Southeast  Level FlightAware Approximate
Sun 01:21:00 PM 25.1950 -106.0404 127° Southeast  Level FlightAware Approximate
Sun 01:22:00 PM 25.1204 -105.9321 129° Southeast  Level FlightAware Approximate
Sun 01:23:00 PM 25.0433 -105.8259 129° Southeast  Level FlightAware Approximate
Sun 01:24:00 PM 24.9662 -105.7199 129° Southeast  Level FlightAware Approximate
Sun 01:25:00 PM 24.8890 -105.6139 129° Southeast  Level FlightAware Approximate
Sun 01:26:00 PM 24.8133 -105.5067 127° Southeast  Level FlightAware Approximate
Sun 01:27:00 PM 24.7383 -105.3991 128° Southeast  Level FlightAware Approximate
Sun 01:28:00 PM 24.6631 -105.2915 128° Southeast  Level FlightAware Approximate
Sun 01:29:00 PM 24.5879 -105.1842 128° Southeast  Level FlightAware Approximate
Sun 01:30:00 PM 24.5126 -105.0769 128° Southeast  Level FlightAware Approximate
Sun 01:31:00 PM 24.4373 -104.9698 128° Southeast  Level FlightAware Approximate
Sun 01:32:00 PM 24.3618 -104.8627 128° Southeast  Level FlightAware Approximate
Sun 01:33:00 PM 24.2863 -104.7559 128° Southeast  Level FlightAware Approximate
Sun 01:34:00 PM 24.2107 -104.6491 128° Southeast  Level FlightAware Approximate
Sun 01:35:00 PM 24.1350 -104.5425 128° Southeast  Level FlightAware Approximate
Sun 01:36:00 PM 24.0617 -104.4340 126° Southeast  Level FlightAware Approximate
Sun 01:37:00 PM 23.9890 -104.3250 126° Southeast  Level FlightAware Approximate
Sun 01:38:00 PM 23.9163 -104.2161 125° Southeast  Level FlightAware Approximate
Sun 01:39:00 PM 23.8452 -104.1060 125° Southeast  Level FlightAware Approximate
Sun 01:40:00 PM 23.7741 -103.9960 125° Southeast  Level FlightAware Approximate
Sun 01:41:00 PM 23.7029 -103.8861 125° Southeast  Level FlightAware Approximate
Sun 01:42:00 PM 23.6316 -103.7764 125° Southeast  Level FlightAware Approximate
Sun 01:43:00 PM 23.5602 -103.6668 125° Southeast  Level FlightAware Approximate
Sun 01:44:00 PM 23.4876 -103.5581 127° Southeast  Level FlightAware Approximate
Sun 01:45:00 PM 23.4132 -103.4510 127° Southeast  Level FlightAware Approximate
Sun 01:46:00 PM 23.3388 -103.3440 127° Southeast  Level FlightAware Approximate
Sun 01:47:00 PM 23.2642 -103.2372 127° Southeast  Level FlightAware Approximate
Sun 01:48:00 PM 23.1896 -103.1304 127° Southeast  Level FlightAware Approximate
Sun 01:49:00 PM 23.1153 -103.0235 126° Southeast  Level FlightAware Approximate
Sun 01:50:00 PM 23.0420 -102.9158 126° Southeast  Level FlightAware Approximate
Sun 01:51:00 PM 22.9687 -102.8082 127° Southeast  Level FlightAware Approximate
Sun 01:52:00 PM 22.8952 -102.7007 127° Southeast  Level FlightAware Approximate
Sun 01:53:00 PM 22.8117 -102.6027 134° Southeast  Level FlightAware Approximate
Sun 01:54:00 PM 22.7261 -102.5064 134° Southeast  Level FlightAware Approximate
Sun 01:55:00 PM 22.6406 -102.4102 134° Southeast  Level FlightAware Approximate
Sun 01:56:00 PM 22.5534 -102.3160 135° Southeast  Level FlightAware Approximate
Sun 01:57:00 PM 22.4655 -102.2225 135° Southeast  Level FlightAware Approximate
Sun 01:58:00 PM 22.3775 -102.1291 136° Southeast  Level FlightAware Approximate
Sun 01:59:00 PM 22.2915 -102.0337 134° Southeast  Level FlightAware Approximate
Sun 02:00:00 PM 22.2065 -101.9373 134° Southeast  Level FlightAware Approximate
Sun 02:01:00 PM 22.1214 -101.8411 134° Southeast  Level FlightAware Approximate
Sun 02:02:00 PM 22.0362 -101.7449 134° Southeast  Level FlightAware Approximate
Sun 02:03:00 PM 21.9510 -101.6489 134° Southeast  Level FlightAware Approximate
Sun 02:04:00 PM 21.8657 -101.5530 134° Southeast  Level FlightAware Approximate
Sun 02:05:00 PM 21.7805 -101.4571 134° Southeast  Level FlightAware Approximate
Sun 02:06:00 PM 21.6952 -101.3613 134° Southeast  Level FlightAware Approximate
Sun 02:07:00 PM 21.6095 -101.2660 134° Southeast  Level FlightAware Approximate
Sun 02:08:00 PM 21.5234 -101.1713 135° Southeast  Level FlightAware Approximate
Sun 02:09:00 PM 21.4363 -101.0775 135° Southeast  Level FlightAware Approximate
Sun 02:10:00 PM 21.3493 -100.9838 135° Southeast  Level FlightAware Approximate
Sun 02:11:00 PM 21.2621 -100.8903 135° Southeast  Level FlightAware Approximate
Sun 02:12:00 PM 21.1749 -100.7969 135° Southeast  Level FlightAware Approximate
Sun 02:13:00 PM 21.0877 -100.7035 135° Southeast  Level FlightAware Approximate
Sun 02:14:00 PM 21.0006 -100.6100 135° Southeast  Level FlightAware Approximate
Sun 02:15:00 PM 20.9135 -100.5167 135° Southeast  Level FlightAware Approximate
Sun 02:16:00 PM 20.8296 -100.4203 131° Southeast  Level FlightAware Approximate
Sun 02:17:00 PM 20.7363 -100.3356 145° Southeast  Level FlightAware Approximate
Sun 02:18:00 PM 20.6525 -100.2391 132° Southeast  Level FlightAware Approximate
Sun 02:19:00 PM 20.5772 -100.1359 132° Southeast  Level FlightAware Approximate
Sun 02:20:00 PM 20.4986 -100.0346 127° Southeast  Level FlightAware Approximate
Sun 02:21:00 PM 20.4239 -99.9300 127° Southeast  Level FlightAware Approximate
Sun 02:22:00 PM 20.3479 -99.8265 130° Southeast  Level FlightAware Approximate
Sun 02:23:00 PM 20.2681 -99.7264 130° Southeast  Level FlightAware Approximate
Sun 02:24:00 PM 20.1881 -99.6264 130° Southeast  Level FlightAware Approximate
Sun 02:25:00 PM 20.1081 -99.5266 130° Southeast  Level FlightAware Approximate
Sun 02:26:00 PM 20.0287 -99.4263 125° Southeast  Level FlightAware Approximate
Sun 02:27:00 PM 19.9574 -99.3194 125° Southeast  Level FlightAware Approximate
Sun 02:28:00 PM 19.8852 -99.2140 133° Southeast  Level FlightAware Approximate
Sun 02:29:00 PM 19.8013 -99.1181 133° Southeast  Level FlightAware Approximate
Sun 02:30:00 PM 19.7274 -99.0182 193° South  Level FlightAware Approximate
Sun 02:31:00 PM 19.6058 -99.0333 180° South  Level FlightAware Approximate
Sun 02:32:00 PM 19.4843 -99.0531 191° South  Level FlightAware Approximate
Sun 02:33:00 PM 19.4363 -99.0721 191° South  Level Estimated
Sun 02:34:00 PM 19.4363 -99.0721 191° South  Level Estimated

Login

Don't have an account? Register now (free) for customized features, flight alerts, and more!